sensor_id;sensor_type;location;lat;lon;timestamp;pressure;altitude;pressure_sealevel;temperature;humidity
41102;BME280;26845;50.190;19.178;2022-09-09T00:01:37;98320.62;;;17.02;94.28
41102;BME280;26845;50.190;19.178;2022-09-09T00:04:11;98324.17;;;16.99;93.39
41102;BME280;26845;50.190;19.178;2022-09-09T00:15:19;98317.06;;;16.96;93.89
41102;BME280;26845;50.190;19.178;2022-09-09T00:17:52;98315.91;;;16.97;93.88
41102;BME280;26845;50.190;19.178;2022-09-09T00:20:42;98314.86;;;16.95;94.25
41102;BME280;26845;50.190;19.178;2022-09-09T00:23:30;98318.41;;;16.92;94.55
41102;BME280;26845;50.190;19.178;2022-09-09T00:31:48;98311.69;;;16.87;95.19
41102;BME280;26845;50.190;19.178;2022-09-09T00:34:19;98319.23;;;16.83;94.61
41102;BME280;26845;50.190;19.178;2022-09-09T00:36:48;98319.38;;;16.80;96.51
41102;BME280;26845;50.190;19.178;2022-09-09T00:41:58;98325.64;;;16.74;94.54
41102;BME280;26845;50.190;19.178;2022-09-09T00:44:32;98333.55;;;16.78;94.39
41102;BME280;26845;50.190;19.178;2022-09-09T00:58:27;98343.44;;;16.81;93.83
41102;BME280;26845;50.190;19.178;2022-09-09T01:00:57;98343.23;;;16.80;93.63
41102;BME280;26845;50.190;19.178;2022-09-09T01:03:35;98345.59;;;16.78;93.61
41102;BME280;26845;50.190;19.178;2022-09-09T01:08:55;98352.94;;;16.67;93.30
41102;BME280;26845;50.190;19.178;2022-09-09T01:11:36;98353.46;;;16.63;93.35
41102;BME280;26845;50.190;19.178;2022-09-09T01:14:29;98355.81;;;16.61;93.37
41102;BME280;26845;50.190;19.178;2022-09-09T01:17:17;98359.14;;;16.57;93.43
41102;BME280;26845;50.190;19.178;2022-09-09T01:27:46;98367.25;;;16.52;93.33
41102;BME280;26845;50.190;19.178;2022-09-09T01:30:15;98365.04;;;16.52;93.40
41102;BME280;26845;50.190;19.178;2022-09-09T01:32:44;98368.44;;;16.51;93.39
41102;BME280;26845;50.190;19.178;2022-09-09T01:37:56;98376.27;;;16.52;93.57
41102;BME280;26845;50.190;19.178;2022-09-09T01:40:24;98375.59;;;16.49;93.68
41102;BME280;26845;50.190;19.178;2022-09-09T01:42:51;98377.55;;;16.38;93.81
41102;BME280;26845;50.190;19.178;2022-09-09T01:45:18;98369.00;;;16.31;94.33
41102;BME280;26845;50.190;19.178;2022-09-09T01:47:45;98374.74;;;16.29;94.26
41102;BME280;26845;50.190;19.178;2022-09-09T01:50:12;98377.30;;;16.28;94.50
41102;BME280;26845;50.190;19.178;2022-09-09T01:52:41;98374.50;;;16.28;94.38
41102;BME280;26845;50.190;19.178;2022-09-09T01:55:09;98371.48;;;16.27;94.50
41102;BME280;26845;50.190;19.178;2022-09-09T01:57:39;98374.56;;;16.22;95.56
41102;BME280;26845;50.190;19.178;2022-09-09T02:00:15;98373.30;;;16.19;94.75
41102;BME280;26845;50.190;19.178;2022-09-09T02:05:41;98371.36;;;16.13;95.56
41102;BME280;26845;50.190;19.178;2022-09-09T02:13:36;98373.55;;;16.04;95.26
41102;BME280;26845;50.190;19.178;2022-09-09T02:21:11;98380.53;;;15.94;94.97
41102;BME280;26845;50.190;19.178;2022-09-09T02:23:40;98384.47;;;16.00;95.12
41102;BME280;26845;50.190;19.178;2022-09-09T02:26:13;98389.83;;;15.99;94.91
41102;BME280;26845;50.190;19.178;2022-09-09T02:28:37;98390.77;;;15.96;94.96
41102;BME280;26845;50.190;19.178;2022-09-09T02:31:07;98392.28;;;16.00;95.03
41102;BME280;26845;50.190;19.178;2022-09-09T02:33:35;98395.89;;;16.01;95.22
41102;BME280;26845;50.190;19.178;2022-09-09T02:36:06;98401.50;;;16.01;95.00
41102;BME280;26845;50.190;19.178;2022-09-09T02:38:36;98397.76;;;16.03;94.96
41102;BME280;26845;50.190;19.178;2022-09-09T02:41:05;98400.83;;;15.98;94.93
41102;BME280;26845;50.190;19.178;2022-09-09T02:43:33;98410.13;;;16.02;95.12
41102;BME280;26845;50.190;19.178;2022-09-09T02:48:47;98412.58;;;16.03;94.72
41102;BME280;26845;50.190;19.178;2022-09-09T02:51:22;98414.33;;;16.02;94.64
41102;BME280;26845;50.190;19.178;2022-09-09T02:53:59;98425.59;;;15.95;94.60
41102;BME280;26845;50.190;19.178;2022-09-09T02:56:38;98421.09;;;15.91;94.78
41102;BME280;26845;50.190;19.178;2022-09-09T02:59:06;98419.52;;;15.93;94.87
41102;BME280;26845;50.190;19.178;2022-09-09T03:01:33;98419.17;;;15.95;94.92
41102;BME280;26845;50.190;19.178;2022-09-09T03:04:02;98424.78;;;15.95;94.67
41102;BME280;26845;50.190;19.178;2022-09-09T03:06:31;98422.79;;;15.95;94.66
41102;BME280;26845;50.190;19.178;2022-09-09T03:08:57;98424.56;;;15.94;94.69
41102;BME280;26845;50.190;19.178;2022-09-09T03:11:26;98423.89;;;15.91;94.53
41102;BME280;26845;50.190;19.178;2022-09-09T03:13:54;98419.69;;;15.91;94.72
41102;BME280;26845;50.190;19.178;2022-09-09T03:16:23;98425.42;;;15.88;94.65
41102;BME280;26845;50.190;19.178;2022-09-09T03:18:50;98429.89;;;15.83;94.71
41102;BME280;26845;50.190;19.178;2022-09-09T03:21:16;98433.77;;;15.79;94.76
41102;BME280;26845;50.190;19.178;2022-09-09T03:23:43;98427.86;;;15.74;94.96
41102;BME280;26845;50.190;19.178;2022-09-09T03:26:13;98420.03;;;15.67;94.84
41102;BME280;26845;50.190;19.178;2022-09-09T03:28:41;98414.60;;;15.59;95.13
41102;BME280;26845;50.190;19.178;2022-09-09T03:31:08;98426.31;;;15.55;95.13
41102;BME280;26845;50.190;19.178;2022-09-09T03:33:37;98428.05;;;15.53;95.40
41102;BME280;26845;50.190;19.178;2022-09-09T03:36:04;98434.03;;;15.51;95.41
41102;BME280;26845;50.190;19.178;2022-09-09T03:38:33;98433.78;;;15.50;95.16
41102;BME280;26845;50.190;19.178;2022-09-09T03:41:00;98436.49;;;15.47;95.17
41102;BME280;26845;50.190;19.178;2022-09-09T03:43:28;98435.81;;;15.44;95.19
41102;BME280;26845;50.190;19.178;2022-09-09T03:45:55;98436.88;;;15.39;96.08
41102;BME280;26845;50.190;19.178;2022-09-09T03:48:23;98440.77;;;15.35;95.57
41102;BME280;26845;50.190;19.178;2022-09-09T03:50:51;98441.36;;;15.34;95.57
41102;BME280;26845;50.190;19.178;2022-09-09T03:53:20;98445.68;;;15.32;95.64
41102;BME280;26845;50.190;19.178;2022-09-09T03:55:49;98447.98;;;15.36;95.77
41102;BME280;26845;50.190;19.178;2022-09-09T03:58:19;98456.47;;;15.39;95.67
41102;BME280;26845;50.190;19.178;2022-09-09T04:00:57;98450.53;;;15.41;95.45
41102;BME280;26845;50.190;19.178;2022-09-09T04:03:39;98452.15;;;15.42;95.44
41102;BME280;26845;50.190;19.178;2022-09-09T04:06:07;98448.54;;;15.41;95.64
41102;BME280;26845;50.190;19.178;2022-09-09T04:08:35;98453.33;;;15.41;95.40
41102;BME280;26845;50.190;19.178;2022-09-09T04:11:03;98462.63;;;15.45;95.51
41102;BME280;26845;50.190;19.178;2022-09-09T04:13:32;98464.50;;;15.47;95.29
41102;BME280;26845;50.190;19.178;2022-09-09T04:16:00;98461.48;;;15.46;95.13
41102;BME280;26845;50.190;19.178;2022-09-09T04:18:29;98459.95;;;15.42;95.14
41102;BME280;26845;50.190;19.178;2022-09-09T04:20:56;98459.95;;;15.42;95.14
41102;BME280;26845;50.190;19.178;2022-09-09T04:23:24;98466.52;;;15.40;95.01
41102;BME280;26845;50.190;19.178;2022-09-09T04:25:52;98462.91;;;15.40;95.25
41102;BME280;26845;50.190;19.178;2022-09-09T04:28:21;98460.67;;;15.39;95.23
41102;BME280;26845;50.190;19.178;2022-09-09T04:30:49;98461.77;;;15.35;95.07
41102;BME280;26845;50.190;19.178;2022-09-09T04:33:16;98461.98;;;15.36;95.31
41102;BME280;26845;50.190;19.178;2022-09-09T04:35:46;98459.81;;;15.29;95.33
41102;BME280;26845;50.190;19.178;2022-09-09T04:38:14;98465.66;;;15.24;95.24
41102;BME280;26845;50.190;19.178;2022-09-09T04:40:45;98467.08;;;15.18;95.16
41102;BME280;26845;50.190;19.178;2022-09-09T04:43:13;98462.20;;;15.15;95.28
41102;BME280;26845;50.190;19.178;2022-09-09T04:45:41;98460.08;;;15.18;95.58
41102;BME280;26845;50.190;19.178;2022-09-09T04:48:09;98467.17;;;15.21;95.54
41102;BME280;26845;50.190;19.178;2022-09-09T04:50:35;98467.27;;;15.25;95.62
41102;BME280;26845;50.190;19.178;2022-09-09T04:53:03;98473.58;;;15.22;95.43
41102;BME280;26845;50.190;19.178;2022-09-09T04:55:31;98476.63;;;15.17;95.44
41102;BME280;26845;50.190;19.178;2022-09-09T04:58:08;98484.69;;;15.18;95.57
41102;BME280;26845;50.190;19.178;2022-09-09T05:00:31;98482.23;;;15.17;95.58
41102;BME280;26845;50.190;19.178;2022-09-09T05:03:02;98483.87;;;15.18;95.63
41102;BME280;26845;50.190;19.178;2022-09-09T05:05:29;98479.42;;;15.17;95.63
41102;BME280;26845;50.190;19.178;2022-09-09T05:08:00;98481.79;;;15.15;95.73
41102;BME280;26845;50.190;19.178;2022-09-09T05:10:29;98486.58;;;15.14;95.84
41102;BME280;26845;50.190;19.178;2022-09-09T05:12:56;98482.11;;;15.19;95.99
41102;BME280;26845;50.190;19.178;2022-09-09T05:15:22;98480.92;;;15.26;96.19
41102;BME280;26845;50.190;19.178;2022-09-09T05:17:51;98484.13;;;15.41;96.52
41102;BME280;26845;50.190;19.178;2022-09-09T05:20:20;98482.55;;;15.56;96.44
41102;BME280;26845;50.190;19.178;2022-09-09T05:22:47;98478.55;;;15.63;96.10
41102;BME280;26845;50.190;19.178;2022-09-09T05:25:13;98488.56;;;15.70;95.83
41102;BME280;26845;50.190;19.178;2022-09-09T05:27:40;98484.14;;;15.69;95.65
41102;BME280;26845;50.190;19.178;2022-09-09T05:30:07;98490.91;;;15.68;95.60
41102;BME280;26845;50.190;19.178;2022-09-09T05:32:35;98495.80;;;15.65;96.18
41102;BME280;26845;50.190;19.178;2022-09-09T05:35:02;98495.70;;;15.61;96.40
41102;BME280;26845;50.190;19.178;2022-09-09T05:37:30;98487.42;;;15.59;96.27
41102;BME280;26845;50.190;19.178;2022-09-09T05:39:57;98496.08;;;15.60;96.44
41102;BME280;26845;50.190;19.178;2022-09-09T05:42:24;98502.61;;;15.58;96.62
41102;BME280;26845;50.190;19.178;2022-09-09T05:44:50;98496.77;;;15.57;97.47
41102;BME280;26845;50.190;19.178;2022-09-09T05:47:18;98496.45;;;15.52;97.27
41102;BME280;26845;50.190;19.178;2022-09-09T05:49:47;98499.16;;;15.48;97.69
41102;BME280;26845;50.190;19.178;2022-09-09T05:52:14;98496.36;;;15.48;97.55
41102;BME280;26845;50.190;19.178;2022-09-09T05:54:40;98498.45;;;15.51;98.34
41102;BME280;26845;50.190;19.178;2022-09-09T05:57:08;98494.68;;;15.53;98.34
41102;BME280;26845;50.190;19.178;2022-09-09T05:59:34;98493.75;;;15.56;97.91
41102;BME280;26845;50.190;19.178;2022-09-09T06:02:03;98497.48;;;15.60;97.83
41102;BME280;26845;50.190;19.178;2022-09-09T06:04:29;98495.23;;;15.65;97.73
41102;BME280;26845;50.190;19.178;2022-09-09T06:06:57;98493.70;;;15.74;98.12
41102;BME280;26845;50.190;19.178;2022-09-09T06:09:23;98496.45;;;15.80;97.93
41102;BME280;26845;50.190;19.178;2022-09-09T06:11:50;98501.43;;;15.87;98.50
41102;BME280;26845;50.190;19.178;2022-09-09T06:14:17;98500.37;;;15.91;98.86
41102;BME280;26845;50.190;19.178;2022-09-09T06:16:44;98504.28;;;15.96;98.76
41102;BME280;26845;50.190;19.178;2022-09-09T06:19:15;98499.81;;;16.02;98.45
41102;BME280;26845;50.190;19.178;2022-09-09T06:21:42;98491.02;;;16.09;98.20
41102;BME280;26845;50.190;19.178;2022-09-09T06:24:12;98499.70;;;16.20;98.45
41102;BME280;26845;50.190;19.178;2022-09-09T06:26:44;98497.88;;;16.28;97.76
41102;BME280;26845;50.190;19.178;2022-09-09T06:29:11;98500.28;;;16.35;97.57
41102;BME280;26845;50.190;19.178;2022-09-09T06:31:38;98502.35;;;16.38;97.17
41102;BME280;26845;50.190;19.178;2022-09-09T06:34:07;98502.09;;;16.44;97.42
41102;BME280;26845;50.190;19.178;2022-09-09T06:36:35;98505.22;;;16.48;97.58
41102;BME280;26845;50.190;19.178;2022-09-09T06:39:05;98507.83;;;16.57;97.40
41102;BME280;26845;50.190;19.178;2022-09-09T06:41:34;98508.03;;;16.74;97.38
41102;BME280;26845;50.190;19.178;2022-09-09T06:44:03;98505.05;;;16.82;97.14
41102;BME280;26845;50.190;19.178;2022-09-09T06:46:30;98505.45;;;16.91;97.07
41102;BME280;26845;50.190;19.178;2022-09-09T06:48:59;98503.17;;;17.06;96.94
41102;BME280;26845;50.190;19.178;2022-09-09T06:51:31;98500.75;;;17.14;96.31
41102;BME280;26845;50.190;19.178;2022-09-09T06:54:00;98507.83;;;17.27;97.01
41102;BME280;26845;50.190;19.178;2022-09-09T06:59:01;98506.08;;;17.48;96.66
41102;BME280;26845;50.190;19.178;2022-09-09T07:01:35;98513.62;;;17.54;95.69
41102;BME280;26845;50.190;19.178;2022-09-09T07:04:01;98514.57;;;17.52;95.41
41102;BME280;26845;50.190;19.178;2022-09-09T07:06:31;98516.20;;;17.63;95.49
41102;BME280;26845;50.190;19.178;2022-09-09T07:09:02;98511.45;;;17.76;95.93
41102;BME280;26845;50.190;19.178;2022-09-09T07:11:39;98517.29;;;17.97;95.63
41102;BME280;26845;50.190;19.178;2022-09-09T07:14:08;98506.45;;;18.09;94.97
41102;BME280;26845;50.190;19.178;2022-09-09T07:16:35;98507.75;;;18.25;94.82
41102;BME280;26845;50.190;19.178;2022-09-09T07:19:03;98508.09;;;18.46;93.81
41102;BME280;26845;50.190;19.178;2022-09-09T07:21:35;98510.23;;;18.53;92.67
41102;BME280;26845;50.190;19.178;2022-09-09T07:24:02;98507.50;;;18.47;91.53
41102;BME280;26845;50.190;19.178;2022-09-09T07:26:29;98496.19;;;18.43;92.15
41102;BME280;26845;50.190;19.178;2022-09-09T07:28:57;98499.08;;;18.60;91.52
41102;BME280;26845;50.190;19.178;2022-09-09T07:31:30;98494.39;;;18.68;91.67
41102;BME280;26845;50.190;19.178;2022-09-09T07:33:58;98492.63;;;18.96;91.33
41102;BME280;26845;50.190;19.178;2022-09-09T07:36:26;98485.09;;;19.20;92.13
41102;BME280;26845;50.190;19.178;2022-09-09T07:39:01;98489.52;;;19.51;91.80
41102;BME280;26845;50.190;19.178;2022-09-09T07:41:34;98495.36;;;19.66;89.42
41102;BME280;26845;50.190;19.178;2022-09-09T07:44:09;98489.21;;;19.73;89.48
41102;BME280;26845;50.190;19.178;2022-09-09T07:46:38;98488.88;;;19.99;89.36
41102;BME280;26845;50.190;19.178;2022-09-09T07:49:09;98495.41;;;20.07;89.19
41102;BME280;26845;50.190;19.178;2022-09-09T07:51:43;98500.42;;;20.04;87.62
41102;BME280;26845;50.190;19.178;2022-09-09T07:54:12;98499.34;;;20.19;88.98
41102;BME280;26845;50.190;19.178;2022-09-09T07:56:40;98503.01;;;20.43;89.16
41102;BME280;26845;50.190;19.178;2022-09-09T07:59:12;98500.39;;;20.69;86.24
41102;BME280;26845;50.190;19.178;2022-09-09T08:01:47;98503.27;;;20.72;82.34
41102;BME280;26845;50.190;19.178;2022-09-09T08:04:14;98505.68;;;20.74;85.84
41102;BME280;26845;50.190;19.178;2022-09-09T08:06:49;98511.14;;;21.04;87.98
41102;BME280;26845;50.190;19.178;2022-09-09T08:09:16;98514.92;;;21.29;84.81
41102;BME280;26845;50.190;19.178;2022-09-09T08:11:48;98523.59;;;21.30;78.73
41102;BME280;26845;50.190;19.178;2022-09-09T08:14:16;98514.70;;;21.28;84.29
41102;BME280;26845;50.190;19.178;2022-09-09T08:16:44;98512.44;;;21.52;82.84
41102;BME280;26845;50.190;19.178;2022-09-09T08:19:12;98516.75;;;21.77;83.93
41102;BME280;26845;50.190;19.178;2022-09-09T08:21:44;98516.83;;;22.02;82.71
41102;BME280;26845;50.190;19.178;2022-09-09T08:24:13;98513.77;;;21.94;81.54
41102;BME280;26845;50.190;19.178;2022-09-09T08:26:42;98522.99;;;22.29;83.14
41102;BME280;26845;50.190;19.178;2022-09-09T08:29:11;98526.45;;;22.57;81.62
41102;BME280;26845;50.190;19.178;2022-09-09T08:34:09;98529.05;;;23.21;80.93
41102;BME280;26845;50.190;19.178;2022-09-09T08:36:38;98521.84;;;23.60;82.07
41102;BME280;26845;50.190;19.178;2022-09-09T08:39:13;98517.99;;;24.06;80.36
41102;BME280;26845;50.190;19.178;2022-09-09T08:50:13;98510.05;;;24.42;78.12
41102;BME280;26845;50.190;19.178;2022-09-09T08:53:04;98511.55;;;24.84;77.25
41102;BME280;26845;50.190;19.178;2022-09-09T08:58:17;98514.91;;;25.13;76.17
41102;BME280;26845;50.190;19.178;2022-09-09T09:09:06;98508.39;;;24.97;72.78
41102;BME280;26845;50.190;19.178;2022-09-09T09:11:51;98514.70;;;25.19;72.73
41102;BME280;26845;50.190;19.178;2022-09-09T09:14:28;98516.22;;;25.46;72.03
41102;BME280;26845;50.190;19.178;2022-09-09T09:19:34;98510.73;;;25.78;71.19
41102;BME280;26845;50.190;19.178;2022-09-09T09:22:04;98508.36;;;26.07;71.12
41102;BME280;26845;50.190;19.178;2022-09-09T09:30:14;98514.23;;;26.08;65.76
41102;BME280;26845;50.190;19.178;2022-09-09T09:32:51;98516.27;;;25.58;66.14
41102;BME280;26845;50.190;19.178;2022-09-09T09:35:20;98509.16;;;25.58;65.82
41102;BME280;26845;50.190;19.178;2022-09-09T09:37:51;98513.88;;;25.56;66.18
41102;BME280;26845;50.190;19.178;2022-09-09T09:40:21;98510.75;;;25.44;66.20
41102;BME280;26845;50.190;19.178;2022-09-09T09:42:52;98508.41;;;25.54;67.18
41102;BME280;26845;50.190;19.178;2022-09-09T09:45:44;98503.73;;;25.71;66.37
41102;BME280;26845;50.190;19.178;2022-09-09T09:48:13;98515.24;;;25.75;64.38
41102;BME280;26845;50.190;19.178;2022-09-09T09:50:55;98508.47;;;25.31;63.73
41102;BME280;26845;50.190;19.178;2022-09-09T09:53:25;98505.41;;;25.49;61.82
41102;BME280;26845;50.190;19.178;2022-09-09T09:55:57;98501.58;;;25.48;64.12
41102;BME280;26845;50.190;19.178;2022-09-09T09:58:33;98493.02;;;25.82;63.90
41102;BME280;26845;50.190;19.178;2022-09-09T10:01:23;98499.55;;;26.10;62.72
41102;BME280;26845;50.190;19.178;2022-09-09T10:03:52;98503.05;;;25.94;61.27
41102;BME280;26845;50.190;19.178;2022-09-09T10:06:34;98499.41;;;25.93;63.91
41102;BME280;26845;50.190;19.178;2022-09-09T10:09:01;98501.75;;;25.98;57.62
41102;BME280;26845;50.190;19.178;2022-09-09T10:14:40;98506.17;;;25.19;57.02
41102;BME280;26845;50.190;19.178;2022-09-09T10:17:13;98499.37;;;24.61;60.45
41102;BME280;26845;50.190;19.178;2022-09-09T10:20:04;98512.70;;;24.45;60.61
41102;BME280;26845;50.190;19.178;2022-09-09T10:22:31;98511.58;;;24.58;60.82
41102;BME280;26845;50.190;19.178;2022-09-09T10:36:16;98518.98;;;26.03;58.39
41102;BME280;26845;50.190;19.178;2022-09-09T10:41:41;98534.48;;;25.98;58.24
41102;BME280;26845;50.190;19.178;2022-09-09T10:47:00;98528.42;;;25.28;57.86
41102;BME280;26845;50.190;19.178;2022-09-09T10:54:53;98523.91;;;25.84;59.17
41102;BME280;26845;50.190;19.178;2022-09-09T11:00:17;98525.83;;;25.75;54.70
41102;BME280;26845;50.190;19.178;2022-09-09T11:02:56;98529.61;;;25.08;51.99
41102;BME280;26845;50.190;19.178;2022-09-09T11:05:27;98524.44;;;24.47;54.86
41102;BME280;26845;50.190;19.178;2022-09-09T11:08:05;98530.59;;;24.35;54.66
41102;BME280;26845;50.190;19.178;2022-09-09T11:10:39;98527.56;;;24.30;56.18
41102;BME280;26845;50.190;19.178;2022-09-09T11:13:20;98517.14;;;24.72;57.48
41102;BME280;26845;50.190;19.178;2022-09-09T11:22:00;98516.76;;;25.15;52.42
41102;BME280;26845;50.190;19.178;2022-09-09T11:24:36;98517.11;;;25.21;54.07
41102;BME280;26845;50.190;19.178;2022-09-09T11:27:17;98522.23;;;25.71;55.41
41102;BME280;26845;50.190;19.178;2022-09-09T11:41:04;98530.13;;;26.48;52.79
41102;BME280;26845;50.190;19.178;2022-09-09T11:43:37;98532.78;;;26.62;52.62
41102;BME280;26845;50.190;19.178;2022-09-09T11:46:12;98529.44;;;26.56;53.07
41102;BME280;26845;50.190;19.178;2022-09-09T11:48:42;98531.20;;;26.31;51.27
41102;BME280;26845;50.190;19.178;2022-09-09T11:56:57;98532.92;;;26.90;47.62
41102;BME280;26845;50.190;19.178;2022-09-09T11:59:32;98519.89;;;26.89;51.14
41102;BME280;26845;50.190;19.178;2022-09-09T12:04:56;98523.70;;;27.50;50.25
41102;BME280;26845;50.190;19.178;2022-09-09T12:15:55;98531.00;;;26.96;49.11
41102;BME280;26845;50.190;19.178;2022-09-09T12:18:31;98524.42;;;27.10;50.32
41102;BME280;26845;50.190;19.178;2022-09-09T12:24:01;98520.02;;;26.94;49.62
41102;BME280;26845;50.190;19.178;2022-09-09T12:29:56;98526.94;;;26.58;49.38
41102;BME280;26845;50.190;19.178;2022-09-09T12:32:25;98527.25;;;25.94;47.54
41102;BME280;26845;50.190;19.178;2022-09-09T12:37:29;98530.64;;;25.28;48.22
41102;BME280;26845;50.190;19.178;2022-09-09T12:39:58;98532.06;;;25.06;49.15
41102;BME280;26845;50.190;19.178;2022-09-09T12:42:28;98529.41;;;24.84;49.45
41102;BME280;26845;50.190;19.178;2022-09-09T12:47:35;98528.47;;;24.50;48.27
41102;BME280;26845;50.190;19.178;2022-09-09T12:50:21;98532.69;;;24.23;49.54
41102;BME280;26845;50.190;19.178;2022-09-09T12:52:47;98527.56;;;24.34;49.79
41102;BME280;26845;50.190;19.178;2022-09-09T12:55:18;98528.52;;;24.42;47.96
41102;BME280;26845;50.190;19.178;2022-09-09T12:57:51;98519.55;;;24.48;49.87
41102;BME280;26845;50.190;19.178;2022-09-09T13:00:19;98519.14;;;24.75;48.77
41102;BME280;26845;50.190;19.178;2022-09-09T13:02:52;98524.19;;;24.79;49.72
41102;BME280;26845;50.190;19.178;2022-09-09T13:05:27;98529.63;;;25.04;49.89
41102;BME280;26845;50.190;19.178;2022-09-09T13:10:33;98523.81;;;25.22;48.65
41102;BME280;26845;50.190;19.178;2022-09-09T13:13:02;98522.52;;;24.85;48.27
41102;BME280;26845;50.190;19.178;2022-09-09T13:15:29;98526.98;;;24.60;49.00
41102;BME280;26845;50.190;19.178;2022-09-09T13:17:56;98522.58;;;24.52;48.22
41102;BME280;26845;50.190;19.178;2022-09-09T13:20:28;98515.59;;;24.34;47.70
41102;BME280;26845;50.190;19.178;2022-09-09T13:22:59;98522.84;;;24.09;47.99
41102;BME280;26845;50.190;19.178;2022-09-09T13:25:27;98523.40;;;23.83;49.06
41102;BME280;26845;50.190;19.178;2022-09-09T13:28:02;98512.70;;;23.71;48.77
41102;BME280;26845;50.190;19.178;2022-09-09T13:30:31;98516.78;;;23.60;49.78
41102;BME280;26845;50.190;19.178;2022-09-09T13:35:35;98512.34;;;23.48;50.13
41102;BME280;26845;50.190;19.178;2022-09-09T13:38:08;98500.02;;;23.46;50.65
41102;BME280;26845;50.190;19.178;2022-09-09T13:40:37;98505.88;;;23.51;50.16
41102;BME280;26845;50.190;19.178;2022-09-09T13:43:04;98499.42;;;23.36;49.27
41102;BME280;26845;50.190;19.178;2022-09-09T13:45:33;98498.63;;;23.35;50.22
41102;BME280;26845;50.190;19.178;2022-09-09T13:48:08;98498.19;;;23.44;50.26
41102;BME280;26845;50.190;19.178;2022-09-09T13:50:30;98504.38;;;23.69;50.85
41102;BME280;26845;50.190;19.178;2022-09-09T13:53:02;98498.42;;;23.89;50.81
41102;BME280;26845;50.190;19.178;2022-09-09T13:55:33;98494.14;;;24.26;51.50
41102;BME280;26845;50.190;19.178;2022-09-09T13:58:04;98484.81;;;24.55;51.64
41102;BME280;26845;50.190;19.178;2022-09-09T14:00:36;98491.75;;;24.73;49.89
41102;BME280;26845;50.190;19.178;2022-09-09T14:03:05;98480.28;;;24.65;50.10
41102;BME280;26845;50.190;19.178;2022-09-09T14:05:34;98487.73;;;24.71;50.74
41102;BME280;26845;50.190;19.178;2022-09-09T14:08:04;98483.66;;;24.72;49.81
41102;BME280;26845;50.190;19.178;2022-09-09T14:10:32;98477.27;;;24.60;50.04
41102;BME280;26845;50.190;19.178;2022-09-09T14:13:02;98467.50;;;24.61;50.69
41102;BME280;26845;50.190;19.178;2022-09-09T14:15:32;98472.68;;;24.51;50.14
41102;BME280;26845;50.190;19.178;2022-09-09T14:17:58;98462.30;;;24.56;50.12
41102;BME280;26845;50.190;19.178;2022-09-09T14:20:29;98460.75;;;24.67;51.11
41102;BME280;26845;50.190;19.178;2022-09-09T14:22:53;98467.23;;;24.71;51.27
41102;BME280;26845;50.190;19.178;2022-09-09T14:25:20;98462.52;;;24.76;51.35
41102;BME280;26845;50.190;19.178;2022-09-09T14:27:47;98461.28;;;24.77;50.38
41102;BME280;26845;50.190;19.178;2022-09-09T14:30:13;98460.31;;;24.72;50.96
41102;BME280;26845;50.190;19.178;2022-09-09T14:32:40;98457.20;;;24.78;51.46
41102;BME280;26845;50.190;19.178;2022-09-09T14:35:07;98458.11;;;24.90;52.30
41102;BME280;26845;50.190;19.178;2022-09-09T14:37:34;98458.59;;;25.01;52.58
41102;BME280;26845;50.190;19.178;2022-09-09T14:40:03;98450.46;;;25.03;52.60
41102;BME280;26845;50.190;19.178;2022-09-09T14:42:31;98446.81;;;25.02;52.22
41102;BME280;26845;50.190;19.178;2022-09-09T14:45:00;98454.45;;;25.09;52.67
41102;BME280;26845;50.190;19.178;2022-09-09T14:47:27;98452.50;;;25.02;50.97
41102;BME280;26845;50.190;19.178;2022-09-09T14:49:56;98453.98;;;24.95;52.44
41102;BME280;26845;50.190;19.178;2022-09-09T14:52:22;98456.88;;;24.91;52.36
41102;BME280;26845;50.190;19.178;2022-09-09T14:54:51;98460.38;;;24.87;53.15
41102;BME280;26845;50.190;19.178;2022-09-09T14:57:19;98463.80;;;24.90;52.73
41102;BME280;26845;50.190;19.178;2022-09-09T14:59:48;98464.16;;;24.74;51.65
41102;BME280;26845;50.190;19.178;2022-09-09T15:02:17;98456.84;;;24.54;52.24
41102;BME280;26845;50.190;19.178;2022-09-09T15:04:43;98458.84;;;24.53;52.66
41102;BME280;26845;50.190;19.178;2022-09-09T15:07:10;98458.80;;;24.60;53.67
41102;BME280;26845;50.190;19.178;2022-09-09T15:09:37;98456.09;;;24.68;54.62
41102;BME280;26845;50.190;19.178;2022-09-09T15:12:03;98456.00;;;24.76;55.18
41102;BME280;26845;50.190;19.178;2022-09-09T15:14:30;98455.77;;;24.82;55.12
41102;BME280;26845;50.190;19.178;2022-09-09T15:16:57;98461.32;;;24.93;55.33
41102;BME280;26845;50.190;19.178;2022-09-09T15:19:23;98454.77;;;24.99;54.54
41102;BME280;26845;50.190;19.178;2022-09-09T15:21:54;98449.66;;;25.02;54.26
41102;BME280;26845;50.190;19.178;2022-09-09T15:24:25;98459.38;;;25.05;54.59
41102;BME280;26845;50.190;19.178;2022-09-09T15:26:52;98456.78;;;24.99;54.93
41102;BME280;26845;50.190;19.178;2022-09-09T15:29:20;98454.20;;;24.96;54.96
41102;BME280;26845;50.190;19.178;2022-09-09T15:31:46;98456.88;;;24.91;53.65
41102;BME280;26845;50.190;19.178;2022-09-09T15:34:13;98459.77;;;24.84;55.17
41102;BME280;26845;50.190;19.178;2022-09-09T15:36:40;98453.73;;;24.79;55.56
41102;BME280;26845;50.190;19.178;2022-09-09T15:39:10;98458.09;;;24.72;56.14
41102;BME280;26845;50.190;19.178;2022-09-09T15:41:45;98458.18;;;24.61;56.40
41102;BME280;26845;50.190;19.178;2022-09-09T15:44:10;98457.47;;;24.50;56.46
41102;BME280;26845;50.190;19.178;2022-09-09T15:46:42;98457.37;;;24.34;55.83
41102;BME280;26845;50.190;19.178;2022-09-09T15:49:17;98459.70;;;24.20;56.00
41102;BME280;26845;50.190;19.178;2022-09-09T15:51:45;98459.22;;;24.03;56.64
41102;BME280;26845;50.190;19.178;2022-09-09T15:54:15;98466.22;;;23.84;56.32
41102;BME280;26845;50.190;19.178;2022-09-09T15:56:43;98470.77;;;23.71;56.52